createdAt,value
2023-03-23T15:57:54.117Z,4.07
2023-03-23T15:59:28.642Z,4.60
2023-03-23T16:00:53.862Z,4.38
2023-03-23T16:02:26.326Z,4.00
2023-03-23T16:03:59.760Z,3.58
2023-03-23T16:05:21.862Z,3.45
2023-03-23T16:06:44.720Z,3.88
2023-03-23T16:08:10.179Z,3.40
2023-03-23T16:09:34.680Z,3.90
2023-03-23T16:10:57.555Z,4.00
2023-03-23T16:12:20.151Z,3.58
2023-03-23T16:13:42.617Z,4.28
2023-03-23T16:15:05.408Z,3.50
2023-03-23T16:16:31.322Z,5.00
2023-03-23T16:17:55.605Z,3.95
2023-03-23T16:19:23.513Z,3.75
2023-03-23T16:20:45.677Z,3.65
2023-03-23T16:22:06.901Z,3.50
2023-03-23T16:23:31.507Z,4.07
2023-03-23T16:25:09.329Z,4.22
2023-03-23T16:26:34.422Z,4.10
2023-03-23T16:27:58.831Z,4.03
2023-03-23T16:30:58.494Z,3.58
2023-03-23T16:34:08.053Z,3.70
2023-03-23T16:35:54.306Z,4.07
2023-03-23T16:37:19.700Z,3.45
2023-03-23T16:38:49.249Z,3.92
2023-03-23T16:40:15.232Z,4.10
2023-03-23T16:41:38.328Z,5.05
2023-03-23T16:43:09.776Z,4.00
2023-03-23T16:44:32.210Z,4.93
2023-03-23T16:45:58.356Z,4.90
2023-03-23T16:47:23.602Z,4.32
2023-03-23T16:48:46.337Z,4.60
2023-03-23T16:50:11.929Z,4.90
2023-03-23T16:51:39.814Z,4.80
2023-03-23T16:53:07.864Z,4.88
2023-03-23T16:54:30.254Z,5.45
2023-03-23T16:56:02.184Z,5.38
2023-03-23T17:00:29.443Z,5.40
2023-03-23T17:03:58.683Z,5.60
2023-03-23T17:05:27.769Z,5.57
2023-03-23T17:09:43.236Z,5.65
2023-03-23T17:11:07.320Z,5.43
2023-03-23T17:12:33.094Z,5.57
2023-03-23T17:13:55.661Z,5.13
2023-03-23T17:15:19.040Z,5.10
2023-03-23T17:16:46.247Z,5.07
2023-03-23T17:18:09.776Z,5.00
2023-03-23T17:19:32.093Z,4.18
2023-03-23T17:20:59.199Z,4.65
2023-03-23T17:22:22.884Z,4.30
2023-03-23T17:23:46.434Z,4.80
2023-03-23T17:25:10.178Z,4.10
2023-03-23T17:26:32.890Z,4.40
2023-03-23T17:27:58.275Z,4.10
2023-03-23T17:29:56.899Z,4.45
2023-03-23T17:31:19.216Z,4.32
2023-03-23T17:32:41.607Z,4.00
2023-03-23T17:34:04.266Z,4.20
2023-03-23T17:35:26.450Z,3.90
2023-03-23T17:36:57.195Z,4.30
2023-03-23T17:38:20.973Z,4.03
2023-03-23T17:39:44.020Z,4.22
2023-03-23T17:41:08.263Z,4.15
2023-03-23T17:42:31.759Z,4.47
2023-03-23T17:43:54.229Z,4.65
2023-03-23T17:45:16.624Z,4.10
2023-03-23T17:46:39.519Z,4.70
2023-03-23T17:48:01.919Z,4.78
2023-03-23T17:49:24.491Z,5.13
2023-03-23T17:50:53.522Z,4.47
2023-03-23T17:52:19.172Z,4.95
2023-03-23T17:53:48.320Z,4.65
2023-03-23T17:55:19.471Z,4.90
2023-03-23T17:56:41.926Z,5.28
2023-03-23T17:58:04.402Z,4.90
2023-03-23T17:59:29.584Z,5.28
2023-03-23T18:00:57.641Z,5.32
2023-03-23T18:02:20.095Z,5.30
2023-03-23T18:03:45.857Z,5.60
2023-03-23T18:05:09.987Z,6.00
2023-03-23T18:06:35.034Z,5.78
2023-03-23T18:07:57.265Z,4.95
2023-03-23T18:09:21.101Z,5.30
2023-03-23T18:10:46.041Z,4.95
2023-03-23T18:12:09.051Z,5.47
2023-03-23T18:13:34.993Z,4.75
2023-03-23T18:15:00.705Z,5.15
2023-03-23T18:16:28.458Z,5.22
2023-03-23T18:17:58.853Z,5.18
2023-03-23T18:19:21.365Z,4.75
2023-03-23T18:20:44.920Z,5.60
2023-03-23T18:22:12.695Z,5.05
2023-03-23T18:23:39.084Z,4.85
2023-03-23T18:25:09.966Z,5.20
2023-03-23T18:26:42.314Z,5.53
2023-03-23T18:28:08.288Z,5.53
2023-03-23T18:29:31.126Z,5.15
2023-03-23T18:31:10.511Z,5.25
2023-03-23T18:35:08.092Z,5.07
2023-03-23T18:36:30.426Z,5.53
2023-03-23T18:37:55.558Z,5.65
2023-03-23T18:39:18.528Z,5.13
2023-03-23T18:40:46.100Z,4.60
2023-03-23T18:42:10.777Z,5.32
2023-03-23T18:43:33.112Z,4.88
2023-03-23T18:44:56.343Z,4.35
2023-03-23T18:46:18.774Z,4.82
2023-03-23T18:47:43.583Z,4.95
2023-03-23T18:49:05.987Z,5.32
2023-03-23T18:50:28.008Z,4.97
2023-03-23T18:53:11.752Z,5.60
2023-03-23T18:54:35.204Z,5.93
2023-03-23T18:56:07.965Z,6.03
2023-03-23T18:57:30.060Z,5.53
2023-03-23T18:58:53.808Z,5.65
2023-03-23T19:00:17.354Z,6.68
2023-03-23T19:01:39.900Z,6.43
2023-03-23T19:03:02.726Z,5.60
2023-03-23T19:04:35.931Z,6.63
2023-03-23T19:06:04.230Z,6.40
2023-03-23T19:07:26.944Z,7.85
2023-03-23T19:08:58.938Z,6.68
2023-03-23T19:10:22.542Z,7.70
2023-03-23T19:11:47.393Z,7.22
2023-03-23T19:13:10.038Z,7.53
2023-03-23T19:14:58.316Z,6.60
2023-03-23T19:16:23.625Z,7.13
2023-03-23T19:17:46.576Z,7.65
2023-03-23T19:19:09.651Z,6.78
2023-03-23T19:21:06.217Z,6.97
2023-03-23T19:22:15.116Z,6.35
2023-03-23T19:23:46.585Z,7.30
2023-03-23T19:25:45.586Z,7.03
2023-03-23T19:27:11.061Z,7.90
2023-03-23T19:29:15.449Z,7.28
2023-03-23T19:30:18.943Z,7.00
2023-03-23T19:31:46.148Z,7.72
2023-03-23T19:33:08.686Z,7.07
2023-03-23T19:34:31.134Z,7.38
2023-03-23T19:36:06.766Z,7.95
2023-03-23T19:37:34.743Z,7.22
2023-03-23T19:39:10.509Z,7.97
2023-03-23T19:40:40.295Z,7.63
2023-03-23T19:42:08.458Z,7.47
2023-03-23T19:43:32.368Z,6.68
2023-03-23T19:44:54.755Z,7.60
2023-03-23T19:46:17.827Z,7.65
2023-03-23T19:47:43.767Z,6.93
2023-03-23T19:49:08.109Z,8.13
2023-03-23T19:50:31.909Z,8.25
2023-03-23T19:52:08.985Z,7.57
2023-03-23T19:53:39.539Z,7.00
2023-03-23T19:55:05.086Z,8.43
2023-03-23T19:56:30.522Z,7.57
2023-03-23T19:57:53.435Z,6.95
2023-03-23T19:59:19.725Z,8.10
2023-03-23T20:00:44.248Z,6.82
2023-03-23T20:04:09.534Z,7.72
2023-03-23T20:05:38.141Z,7.10
2023-03-23T20:07:07.847Z,6.97
2023-03-23T20:08:33.769Z,7.38
2023-03-23T20:10:00.944Z,8.18
2023-03-23T20:11:31.152Z,7.18
2023-03-23T20:13:17.950Z,7.22
2023-03-23T20:14:52.065Z,6.68
2023-03-23T20:16:20.035Z,6.80
2023-03-23T20:18:08.167Z,7.55
2023-03-23T20:19:40.242Z,7.10
2023-03-23T20:21:22.935Z,7.28
2023-03-23T20:22:48.077Z,7.13
2023-03-23T20:24:11.926Z,7.43
2023-03-23T20:25:40.495Z,7.70
2023-03-23T20:27:04.050Z,7.57
2023-03-23T20:28:26.355Z,7.85
2023-03-23T20:29:54.401Z,7.75
2023-03-23T20:31:24.167Z,7.70
2023-03-23T20:33:02.368Z,7.13
2023-03-23T20:34:32.673Z,7.82
2023-03-23T20:36:04.086Z,7.38
2023-03-23T20:37:26.228Z,8.13
2023-03-23T20:38:53.522Z,7.22
2023-03-23T20:40:15.909Z,7.78
2023-03-23T20:41:47.746Z,7.50
2023-03-23T20:44:40.418Z,6.85
2023-03-23T20:46:04.964Z,6.93
2023-03-23T20:47:28.301Z,7.45
2023-03-23T20:48:52.731Z,8.32
2023-03-23T20:50:17.371Z,7.40
2023-03-23T20:51:45.573Z,7.68
2023-03-23T20:53:17.492Z,7.35
2023-03-23T20:55:14.273Z,7.33
2023-03-23T20:56:42.344Z,7.15
2023-03-23T20:58:05.420Z,7.55
2023-03-23T20:59:29.069Z,6.78
2023-03-23T21:00:57.436Z,7.57
2023-03-23T21:02:27.420Z,7.25
2023-03-23T21:03:57.161Z,7.63
2023-03-23T21:05:26.432Z,7.30
2023-03-23T21:06:54.743Z,7.65
2023-03-23T21:08:18.417Z,6.28
2023-03-23T21:09:44.582Z,7.70
2023-03-23T21:11:09.359Z,7.47
2023-03-23T21:12:33.947Z,8.20
2023-03-23T21:13:58.531Z,8.07
2023-03-23T21:15:23.787Z,7.85
2023-03-23T21:16:46.896Z,7.97
2023-03-23T21:18:11.611Z,7.82
2023-03-23T21:19:33.926Z,9.05
2023-03-23T21:20:59.391Z,8.68
2023-03-23T21:22:22.548Z,7.85
2023-03-23T21:23:46.994Z,9.02
2023-03-23T21:25:16.806Z,8.98
2023-03-23T21:26:56.969Z,8.48
2023-03-23T21:28:21.235Z,8.27
2023-03-23T21:29:43.385Z,8.15
2023-03-23T21:31:07.671Z,8.45
2023-03-23T21:32:32.279Z,8.93
2023-03-23T21:33:59.310Z,8.32
2023-03-23T21:35:28.036Z,8.30
2023-03-23T21:36:50.593Z,8.32
2023-03-23T21:38:14.514Z,8.57
2023-03-23T21:39:38.410Z,9.15
2023-03-23T21:41:01.034Z,8.57
2023-03-23T21:42:30.479Z,8.90
2023-03-23T21:44:10.199Z,8.43
2023-03-23T21:45:40.380Z,8.20
2023-03-23T21:47:38.152Z,8.82
2023-03-23T21:49:16.574Z,8.45
2023-03-23T21:50:42.459Z,8.98
2023-03-23T21:52:10.897Z,9.68
2023-03-23T21:54:21.680Z,9.30
2023-03-23T21:55:48.181Z,10.15
2023-03-23T21:57:12.831Z,9.73
2023-03-23T21:58:35.687Z,10.15
2023-03-23T21:59:58.040Z,8.90
2023-03-23T22:01:27.136Z,9.95
2023-03-23T22:02:51.502Z,10.00
2023-03-23T22:04:22.757Z,9.55
2023-03-23T22:05:44.838Z,9.90
2023-03-23T22:07:11.985Z,9.50
2023-03-23T22:08:35.966Z,9.48
2023-03-23T22:10:07.072Z,9.05
2023-03-23T22:11:35.368Z,9.55
2023-03-23T22:13:03.266Z,9.18
2023-03-23T22:14:25.801Z,8.98
2023-03-23T22:15:47.694Z,9.48
2023-03-23T22:17:18.604Z,9.55
2023-03-23T22:18:43.242Z,9.10
2023-03-23T22:20:13.666Z,9.65
2023-03-23T22:21:38.801Z,9.93
2023-03-23T22:23:20.930Z,9.80
2023-03-23T22:24:43.030Z,9.30
2023-03-23T22:27:41.377Z,10.65
2023-03-23T22:29:11.366Z,10.80
2023-03-23T22:30:33.446Z,10.43
2023-03-23T22:31:56.689Z,9.65
2023-03-23T22:33:20.480Z,10.30
2023-03-23T22:34:52.236Z,8.95
2023-03-23T22:36:19.167Z,9.45
2023-03-23T22:37:53.705Z,9.43
2023-03-23T22:39:16.068Z,9.15
2023-03-23T22:40:43.638Z,9.32
2023-03-23T22:42:13.789Z,8.10
2023-03-23T22:44:27.944Z,8.38
2023-03-23T22:45:56.040Z,8.43
2023-03-23T22:47:18.956Z,7.63
2023-03-23T22:48:43.260Z,8.20
2023-03-23T22:50:16.084Z,7.63
2023-03-23T22:51:47.356Z,8.13
2023-03-23T22:53:10.388Z,7.70
2023-03-23T22:54:32.756Z,7.32
2023-03-23T22:55:59.535Z,7.28
2023-03-23T22:57:24.539Z,7.47
2023-03-23T22:58:49.527Z,7.97
2023-03-23T23:00:15.874Z,7.80
2023-03-23T23:01:58.092Z,7.55
2023-03-23T23:03:37.318Z,6.95
2023-03-23T23:05:00.947Z,8.23
2023-03-23T23:06:24.991Z,7.55
2023-03-23T23:07:52.445Z,6.78
2023-03-23T23:09:17.806Z,7.03
2023-03-23T23:10:42.386Z,6.97
2023-03-23T23:12:08.079Z,6.60
2023-03-23T23:13:32.679Z,7.10
2023-03-23T23:14:55.521Z,6.80
2023-03-23T23:16:25.297Z,7.22
2023-03-23T23:17:47.898Z,7.22
2023-03-23T23:19:12.393Z,7.30
2023-03-23T23:20:37.826Z,7.35
2023-03-23T23:22:16.186Z,6.55
2023-03-23T23:23:42.629Z,7.10
2023-03-23T23:25:04.906Z,7.60
2023-03-23T23:26:27.614Z,6.90
2023-03-23T23:27:59.818Z,7.38
2023-03-23T23:31:41.605Z,7.65
2023-03-23T23:33:26.366Z,6.40
2023-03-23T23:37:38.455Z,6.18
2023-03-23T23:39:17.255Z,6.20
2023-03-23T23:40:41.484Z,6.47
2023-03-23T23:42:21.425Z,6.20
2023-03-23T23:43:43.808Z,6.43
2023-03-23T23:45:08.222Z,6.65
2023-03-23T23:46:34.747Z,6.00
2023-03-23T23:47:58.136Z,6.72
2023-03-23T23:49:26.250Z,5.80
2023-03-23T23:50:51.108Z,5.53
2023-03-23T23:52:12.224Z,6.47
2023-03-23T23:53:39.254Z,5.32
2023-03-23T23:55:15.931Z,5.25
2023-03-23T23:57:02.388Z,5.55
2023-03-23T23:58:32.425Z,5.35
